createdAt,value
2017-03-29T00:00:23.557Z,1016.61
2017-03-29T00:01:04.199Z,1016.59
2017-03-29T00:01:44.865Z,1016.63
2017-03-29T00:02:25.571Z,1016.6
2017-03-29T00:03:06.232Z,1016.61
2017-03-29T00:03:46.823Z,1016.59
2017-03-29T00:04:27.479Z,1016.6
2017-03-29T00:05:08.180Z,1016.62
2017-03-29T00:05:48.847Z,1016.62
2017-03-29T00:06:29.536Z,1016.61
2017-03-29T00:07:10.167Z,1016.64
2017-03-29T00:07:50.822Z,1016.61
2017-03-29T00:08:31.564Z,1016.6
2017-03-29T00:09:12.202Z,1016.6
2017-03-29T00:09:52.833Z,1016.62
2017-03-29T00:10:33.469Z,1016.62
2017-03-29T00:11:14.134Z,1016.6
2017-03-29T00:11:54.755Z,1016.59
2017-03-29T00:12:35.468Z,1016.59
2017-03-29T00:13:16.145Z,1016.61
2017-03-29T00:13:56.872Z,1016.57
2017-03-29T00:14:37.524Z,1016.59
2017-03-29T00:15:18.197Z,1016.59
2017-03-29T00:15:58.830Z,1016.61
2017-03-29T00:16:39.462Z,1016.59
2017-03-29T00:17:20.207Z,1016.56
2017-03-29T00:18:00.838Z,1016.58
2017-03-29T00:18:41.463Z,1016.6
2017-03-29T00:19:22.203Z,1016.59
2017-03-29T00:20:02.866Z,1016.57
2017-03-29T00:20:43.535Z,1016.59
2017-03-29T00:21:24.177Z,1016.56
2017-03-29T00:22:04.826Z,1016.58
2017-03-29T00:22:45.538Z,1016.59
2017-03-29T00:23:26.198Z,1016.56
2017-03-29T00:24:06.862Z,1016.53
2017-03-29T00:24:47.551Z,1016.56
2017-03-29T00:25:28.223Z,1016.51
2017-03-29T00:26:08.850Z,1016.51
2017-03-29T00:26:49.583Z,1016.44
2017-03-29T00:27:30.243Z,1016.45
2017-03-29T00:28:10.861Z,1016.45
2017-03-29T00:28:51.495Z,1016.45
2017-03-29T00:29:32.165Z,1016.42
2017-03-29T00:30:12.809Z,1016.44
2017-03-29T00:30:53.474Z,1016.41
2017-03-29T00:31:34.196Z,1016.44
2017-03-29T00:32:14.819Z,1016.41
2017-03-29T00:32:55.569Z,1016.45
2017-03-29T00:33:36.221Z,1016.41
2017-03-29T00:34:16.843Z,1016.43
2017-03-29T00:34:57.487Z,1016.38
2017-03-29T00:35:38.201Z,1016.39
2017-03-29T00:36:18.965Z,1016.36
2017-03-29T00:36:59.643Z,1016.36
2017-03-29T00:37:40.279Z,1016.35
2017-03-29T00:38:20.923Z,1016.36
2017-03-29T00:39:01.575Z,1016.34
2017-03-29T00:39:42.212Z,1016.31
2017-03-29T00:40:22.855Z,1016.32
2017-03-29T00:41:03.500Z,1016.29
2017-03-29T00:41:44.185Z,1016.28
2017-03-29T00:42:24.830Z,1016.31
2017-03-29T00:43:05.468Z,1016.29
2017-03-29T00:43:46.140Z,1016.27
2017-03-29T00:44:26.776Z,1016.28
2017-03-29T00:45:07.401Z,1016.27
2017-03-29T00:45:48.041Z,1016.27
2017-03-29T00:46:28.741Z,1016.26
2017-03-29T00:47:09.380Z,1016.27
2017-03-29T00:47:50.017Z,1016.27
2017-03-29T00:48:30.643Z,1016.28
2017-03-29T00:49:11.290Z,1016.25
2017-03-29T00:49:51.922Z,1016.19
2017-03-29T00:50:32.584Z,1016.21
2017-03-29T00:51:13.213Z,1016.22
2017-03-29T00:51:53.871Z,1016.22
2017-03-29T00:52:34.514Z,1016.18
2017-03-29T00:53:15.141Z,1016.22
2017-03-29T00:53:55.823Z,1016.21
2017-03-29T00:54:36.527Z,1016.18
2017-03-29T00:55:17.241Z,1016.17
2017-03-29T00:55:57.877Z,1016.19
2017-03-29T00:56:38.529Z,1016.19
2017-03-29T00:57:19.210Z,1016.21
2017-03-29T00:57:59.833Z,1016.18
2017-03-29T00:58:40.506Z,1016.21
2017-03-29T00:59:21.143Z,1016.21
2017-03-29T01:00:01.771Z,1016.17
2017-03-29T01:00:42.431Z,1016.2
2017-03-29T01:01:23.057Z,1016.18
2017-03-29T01:02:03.686Z,1016.21
2017-03-29T01:02:44.323Z,1016.15
2017-03-29T01:03:25.008Z,1016.14
2017-03-29T01:04:05.626Z,1016.16
2017-03-29T01:04:46.274Z,1016.13
2017-03-29T01:05:26.898Z,1016.16
2017-03-29T01:06:07.528Z,1016.18
2017-03-29T01:06:48.235Z,1016.12
2017-03-29T01:07:28.873Z,1016.13
2017-03-29T01:08:09.501Z,1016.14
2017-03-29T01:08:50.214Z,1016.12
2017-03-29T01:09:30.994Z,1016.16
2017-03-29T01:10:11.625Z,1016.15
2017-03-29T01:10:52.252Z,1016.15
2017-03-29T01:11:32.886Z,1016.15
2017-03-29T01:12:13.583Z,1016.16
2017-03-29T01:12:54.206Z,1016.14
2017-03-29T01:13:34.862Z,1016.15
2017-03-29T01:14:15.490Z,1016.12
2017-03-29T01:14:56.124Z,1016.16
2017-03-29T01:15:36.829Z,1016.12
2017-03-29T01:16:17.478Z,1016.13
2017-03-29T01:16:58.105Z,1016.15
2017-03-29T01:17:38.794Z,1016.11
2017-03-29T01:18:19.465Z,1016.1
2017-03-29T01:19:00.095Z,1016.13
2017-03-29T01:19:40.728Z,1016.11
2017-03-29T01:20:21.349Z,1016.1
2017-03-29T01:21:01.976Z,1016.09
2017-03-29T01:21:42.722Z,1016.1
2017-03-29T01:22:23.381Z,1016.1
2017-03-29T01:23:04.054Z,1016.18
2017-03-29T01:23:44.725Z,1016.12
2017-03-29T01:24:25.364Z,1016.14
2017-03-29T01:25:06.047Z,1016.13
2017-03-29T01:25:46.682Z,1016.14
2017-03-29T01:26:27.405Z,1016.17
2017-03-29T01:27:08.082Z,1016.14
2017-03-29T01:27:48.751Z,1016.13
2017-03-29T01:28:29.483Z,1016.15
2017-03-29T01:29:10.166Z,1016.12
2017-03-29T01:29:50.868Z,1016.15
2017-03-29T01:30:31.496Z,1016.14
2017-03-29T01:31:12.251Z,1016.15
2017-03-29T01:31:52.929Z,1016.11
2017-03-29T01:32:33.550Z,1016.09
2017-03-29T01:33:14.226Z,1016.11
2017-03-29T01:33:54.854Z,1016.13
2017-03-29T01:34:35.492Z,1016.08
2017-03-29T01:35:16.117Z,1016.09
2017-03-29T01:35:56.773Z,1016.08
2017-03-29T01:36:37.434Z,1016.02
2017-03-29T01:37:18.122Z,1016.03
2017-03-29T01:37:58.841Z,1016.03
2017-03-29T01:38:39.548Z,1016.04
2017-03-29T01:39:20.177Z,1016.04
2017-03-29T01:40:00.917Z,1016.01
2017-03-29T01:40:41.567Z,1016.01
2017-03-29T01:41:22.192Z,1016.02
2017-03-29T01:42:02.840Z,1016
2017-03-29T01:42:43.497Z,1015.98
2017-03-29T01:43:24.123Z,1015.97
2017-03-29T01:44:04.760Z,1015.98
2017-03-29T01:44:45.427Z,1015.99
2017-03-29T01:45:26.084Z,1016
2017-03-29T01:46:06.704Z,1015.96
2017-03-29T01:46:47.357Z,1015.97
2017-03-29T01:47:27.978Z,1015.99
2017-03-29T01:48:08.633Z,1015.97
2017-03-29T01:48:49.265Z,1015.97
2017-03-29T01:49:29.919Z,1015.95
2017-03-29T01:50:10.537Z,1015.97
2017-03-29T01:50:51.195Z,1015.96
2017-03-29T01:51:31.833Z,1015.9
2017-03-29T01:52:12.477Z,1015.93
2017-03-29T01:52:53.134Z,1015.96
2017-03-29T01:53:33.792Z,1015.93
2017-03-29T01:54:14.416Z,1015.9
2017-03-29T01:54:55.123Z,1015.94
2017-03-29T01:55:35.752Z,1015.95
2017-03-29T01:56:16.398Z,1015.93
2017-03-29T01:56:57.096Z,1015.94
2017-03-29T01:57:37.713Z,1015.96
2017-03-29T01:58:18.352Z,1015.94
2017-03-29T01:58:59.049Z,1015.95
2017-03-29T01:59:39.675Z,1015.94
2017-03-29T02:00:20.322Z,1015.89
2017-03-29T02:01:00.925Z,1015.95
2017-03-29T02:01:41.569Z,1015.95
2017-03-29T02:02:22.198Z,1015.94
2017-03-29T02:03:02.926Z,1015.92
2017-03-29T02:03:43.553Z,1015.9
2017-03-29T02:04:24.186Z,1015.89
2017-03-29T02:05:04.872Z,1015.91
2017-03-29T02:05:45.499Z,1015.89
2017-03-29T02:06:26.125Z,1015.92
2017-03-29T02:07:06.804Z,1015.89
2017-03-29T02:07:47.487Z,1015.89
2017-03-29T02:08:28.106Z,1015.89
2017-03-29T02:09:08.812Z,1015.89
2017-03-29T02:09:49.548Z,1015.85
2017-03-29T02:10:30.213Z,1015.82
2017-03-29T02:11:10.852Z,1015.84
2017-03-29T02:11:51.487Z,1015.8
2017-03-29T02:12:32.160Z,1015.8
2017-03-29T02:13:12.778Z,1015.79
2017-03-29T02:13:53.417Z,1015.8
2017-03-29T02:14:34.031Z,1015.8
2017-03-29T02:15:14.693Z,1015.79
2017-03-29T02:15:55.444Z,1015.73
2017-03-29T02:16:36.097Z,1015.75
2017-03-29T02:17:16.731Z,1015.76
2017-03-29T02:17:57.378Z,1015.73
2017-03-29T02:18:38.009Z,1015.69
2017-03-29T02:19:18.642Z,1015.68
2017-03-29T02:19:59.294Z,1015.66
2017-03-29T02:20:39.966Z,1015.67
2017-03-29T02:21:20.599Z,1015.65
2017-03-29T02:22:01.242Z,1015.68
2017-03-29T02:22:41.878Z,1015.64
2017-03-29T02:23:22.530Z,1015.63
2017-03-29T02:24:03.230Z,1015.61
2017-03-29T02:24:43.911Z,1015.65
2017-03-29T02:25:24.632Z,1015.58
2017-03-29T02:26:05.277Z,1015.59
2017-03-29T02:26:46.013Z,1015.62
2017-03-29T02:27:26.753Z,1015.61
2017-03-29T02:28:07.440Z,1015.59
2017-03-29T02:28:48.078Z,1015.59
2017-03-29T02:29:28.710Z,1015.58
2017-03-29T02:30:09.341Z,1015.55
2017-03-29T02:30:49.964Z,1015.61
2017-03-29T02:31:30.593Z,1015.57
2017-03-29T02:32:11.226Z,1015.56
2017-03-29T02:32:51.884Z,1015.54
2017-03-29T02:33:32.522Z,1015.53
2017-03-29T02:34:13.215Z,1015.53
2017-03-29T02:34:53.860Z,1015.5
2017-03-29T02:35:34.532Z,1015.5
2017-03-29T02:36:15.241Z,1015.52
2017-03-29T02:36:55.865Z,1015.54
2017-03-29T02:37:36.564Z,1015.53
2017-03-29T02:38:17.219Z,1015.55
2017-03-29T02:38:57.844Z,1015.55
2017-03-29T02:39:38.465Z,1015.54
2017-03-29T02:40:19.096Z,1015.54
2017-03-29T02:40:59.760Z,1015.58
2017-03-29T02:41:40.381Z,1015.55
2017-03-29T02:42:21.032Z,1015.57
2017-03-29T02:43:01.658Z,1015.56
2017-03-29T02:43:42.300Z,1015.58
2017-03-29T02:44:22.933Z,1015.55
2017-03-29T02:45:03.579Z,1015.55
2017-03-29T02:45:44.200Z,1015.52
2017-03-29T02:46:24.830Z,1015.54
2017-03-29T02:47:05.467Z,1015.53
2017-03-29T02:47:46.178Z,1015.56
2017-03-29T02:48:26.885Z,1015.52
2017-03-29T02:49:07.536Z,1015.56
2017-03-29T02:49:48.184Z,1015.54
2017-03-29T02:50:28.814Z,1015.49
2017-03-29T02:51:09.440Z,1015.51
2017-03-29T02:51:50.094Z,1015.48
2017-03-29T02:52:30.721Z,1015.49
2017-03-29T02:53:11.344Z,1015.46
2017-03-29T02:53:51.978Z,1015.48
2017-03-29T02:54:32.623Z,1015.5
2017-03-29T02:55:13.250Z,1015.47
2017-03-29T02:55:53.982Z,1015.48
2017-03-29T02:56:34.629Z,1015.45
2017-03-29T02:57:15.303Z,1015.48
2017-03-29T02:57:56.010Z,1015.44
2017-03-29T02:58:36.668Z,1015.46
2017-03-29T02:59:17.300Z,1015.45
2017-03-29T02:59:57.925Z,1015.42
2017-03-29T03:00:38.648Z,1015.44
2017-03-29T03:01:19.308Z,1015.45
2017-03-29T03:01:59.950Z,1015.46
2017-03-29T03:02:40.587Z,1015.42
2017-03-29T03:03:21.252Z,1015.44
2017-03-29T03:04:01.883Z,1015.46
2017-03-29T03:04:42.569Z,1015.49
2017-03-29T03:05:23.204Z,1015.5
2017-03-29T03:06:03.832Z,1015.46
2017-03-29T03:06:44.572Z,1015.45
2017-03-29T03:07:25.202Z,1015.44
2017-03-29T03:08:05.831Z,1015.43
2017-03-29T03:08:46.461Z,1015.45
2017-03-29T03:09:27.087Z,1015.41
2017-03-29T03:10:07.717Z,1015.39
2017-03-29T03:10:48.398Z,1015.42
2017-03-29T03:11:29.063Z,1015.38
2017-03-29T03:12:09.688Z,1015.43
2017-03-29T03:12:50.344Z,1015.45
2017-03-29T03:13:31.046Z,1015.42
2017-03-29T03:14:11.734Z,1015.39
2017-03-29T03:14:52.357Z,1015.42
2017-03-29T03:15:33.013Z,1015.42
2017-03-29T03:16:13.655Z,1015.4
2017-03-29T03:16:54.262Z,1015.39
2017-03-29T03:17:34.889Z,1015.38
2017-03-29T03:18:15.528Z,1015.34
2017-03-29T03:18:56.180Z,1015.37
2017-03-29T03:19:36.810Z,1015.37
2017-03-29T03:20:17.486Z,1015.33
2017-03-29T03:20:58.112Z,1015.36
2017-03-29T03:21:38.736Z,1015.33
2017-03-29T03:22:19.379Z,1015.33
2017-03-29T03:23:00.006Z,1015.34
2017-03-29T03:23:40.660Z,1015.33
2017-03-29T03:24:21.287Z,1015.34
2017-03-29T03:25:01.916Z,1015.37
2017-03-29T03:25:42.555Z,1015.34
2017-03-29T03:26:23.201Z,1015.37
2017-03-29T03:27:03.825Z,1015.32
2017-03-29T03:27:44.534Z,1015.32
2017-03-29T03:28:25.164Z,1015.34
2017-03-29T03:29:05.796Z,1015.33
2017-03-29T03:29:46.431Z,1015.34
2017-03-29T03:30:27.060Z,1015.34
2017-03-29T03:31:07.706Z,1015.35
2017-03-29T03:31:48.367Z,1015.36
2017-03-29T03:32:28.992Z,1015.36
2017-03-29T03:33:09.618Z,1015.36
2017-03-29T03:33:50.281Z,1015.36
2017-03-29T03:34:30.907Z,1015.31
2017-03-29T03:35:11.529Z,1015.32
2017-03-29T03:35:52.193Z,1015.37
2017-03-29T03:36:32.837Z,1015.35
2017-03-29T03:37:13.457Z,1015.36
2017-03-29T03:37:54.102Z,1015.39
2017-03-29T03:38:34.759Z,1015.38
2017-03-29T03:39:15.386Z,1015.36
2017-03-29T03:39:56.010Z,1015.33
2017-03-29T03:40:36.719Z,1015.33
2017-03-29T03:41:17.347Z,1015.33
2017-03-29T03:41:57.976Z,1015.32
2017-03-29T03:42:38.597Z,1015.33
2017-03-29T03:43:19.251Z,1015.29
2017-03-29T03:43:59.909Z,1015.34
2017-03-29T03:44:40.528Z,1015.33
2017-03-29T03:45:21.157Z,1015.28
2017-03-29T03:46:01.815Z,1015.3
2017-03-29T03:46:42.432Z,1015.28
2017-03-29T03:47:23.060Z,1015.23
2017-03-29T03:48:03.711Z,1015.25
2017-03-29T03:48:44.343Z,1015.24
2017-03-29T03:49:24.967Z,1015.26
2017-03-29T03:50:05.593Z,1015.26
2017-03-29T03:50:46.235Z,1015.27
2017-03-29T03:51:26.878Z,1015.25
2017-03-29T03:52:07.548Z,1015.25
2017-03-29T03:52:48.174Z,1015.2
2017-03-29T03:53:28.801Z,1015.26
2017-03-29T03:54:09.495Z,1015.27
2017-03-29T03:54:50.191Z,1015.24
2017-03-29T03:55:30.834Z,1015.18
2017-03-29T03:56:11.463Z,1015.19
2017-03-29T03:56:52.086Z,1015.18
2017-03-29T03:57:32.710Z,1015.18
2017-03-29T03:58:14.044Z,1015.15
2017-03-29T03:58:54.690Z,1015.16
2017-03-29T03:59:35.321Z,1015.17
2017-03-29T04:00:15.944Z,1015.15
2017-03-29T04:00:56.578Z,1015.19
2017-03-29T04:01:37.208Z,1015.18
2017-03-29T04:02:17.834Z,1015.18
2017-03-29T04:02:58.463Z,1015.21
2017-03-29T04:03:39.092Z,1015.2
2017-03-29T04:04:19.713Z,1015.22
2017-03-29T04:05:00.339Z,1015.23
2017-03-29T04:05:41.057Z,1015.21
2017-03-29T04:06:21.710Z,1015.25
2017-03-29T04:07:02.337Z,1015.25
2017-03-29T04:07:43.052Z,1015.22
2017-03-29T04:08:23.672Z,1015.26
2017-03-29T04:09:04.307Z,1015.24
2017-03-29T04:09:44.936Z,1015.26
2017-03-29T04:10:25.568Z,1015.29
2017-03-29T04:11:06.193Z,1015.27
2017-03-29T04:11:46.861Z,1015.27
2017-03-29T04:12:27.481Z,1015.27
2017-03-29T04:13:08.103Z,1015.28
2017-03-29T04:13:48.821Z,1015.23
2017-03-29T04:14:29.450Z,1015.24
2017-03-29T04:15:10.076Z,1015.22
2017-03-29T04:15:50.770Z,1015.23
2017-03-29T04:16:31.411Z,1015.22
2017-03-29T04:17:12.055Z,1015.19
2017-03-29T04:17:52.729Z,1015.24
2017-03-29T04:18:33.381Z,1015.22
2017-03-29T04:19:14.096Z,1015.24
2017-03-29T04:19:54.742Z,1015.22
2017-03-29T04:20:35.363Z,1015.21
2017-03-29T04:21:15.994Z,1015.22
2017-03-29T04:21:56.615Z,1015.19
2017-03-29T04:22:37.247Z,1015.22
2017-03-29T04:23:17.917Z,1015.21
2017-03-29T04:23:58.583Z,1015.17
2017-03-29T04:24:39.216Z,1015.19
2017-03-29T04:25:19.908Z,1015.21
2017-03-29T04:26:00.571Z,1015.21
2017-03-29T04:26:41.179Z,1015.2
2017-03-29T04:27:21.876Z,1015.15
2017-03-29T04:28:02.500Z,1015.2
2017-03-29T04:28:43.180Z,1015.21
2017-03-29T04:29:23.816Z,1015.21
2017-03-29T04:30:04.469Z,1015.19
2017-03-29T04:30:45.186Z,1015.23
2017-03-29T04:31:25.824Z,1015.22
2017-03-29T04:32:06.476Z,1015.23
2017-03-29T04:32:47.178Z,1015.21
2017-03-29T04:33:27.804Z,1015.27
2017-03-29T04:34:08.533Z,1015.22
2017-03-29T04:34:49.169Z,1015.29
2017-03-29T04:35:29.943Z,1015.26
2017-03-29T04:36:10.611Z,1015.27
2017-03-29T04:36:51.239Z,1015.27
2017-03-29T04:37:31.977Z,1015.24
2017-03-29T04:38:12.737Z,1015.25
2017-03-29T04:38:53.347Z,1015.23
2017-03-29T04:39:34.028Z,1015.25
2017-03-29T04:40:14.723Z,1015.25
2017-03-29T04:40:55.383Z,1015.21
2017-03-29T04:41:36.011Z,1015.21
2017-03-29T04:42:16.641Z,1015.2
2017-03-29T04:42:57.323Z,1015.21
2017-03-29T04:43:37.959Z,1015.19
2017-03-29T04:44:19.166Z,1015.24
2017-03-29T04:44:59.792Z,1015.18
2017-03-29T04:45:40.447Z,1015.21
2017-03-29T04:46:21.078Z,1015.18
2017-03-29T04:47:01.699Z,1015.22
2017-03-29T04:47:42.451Z,1015.22
2017-03-29T04:48:23.084Z,1015.24
2017-03-29T04:49:03.709Z,1015.22
2017-03-29T04:49:44.372Z,1015.22
2017-03-29T04:50:25.051Z,1015.22
2017-03-29T04:51:05.680Z,1015.2
2017-03-29T04:51:46.370Z,1015.21
2017-03-29T04:52:27.080Z,1015.22
2017-03-29T04:53:07.711Z,1015.24
2017-03-29T04:53:48.348Z,1015.21
2017-03-29T04:54:28.975Z,1015.23
2017-03-29T04:55:09.746Z,1015.21
2017-03-29T04:55:50.380Z,1015.23
2017-03-29T04:56:31.041Z,1015.22
2017-03-29T04:57:11.701Z,1015.21
2017-03-29T04:57:52.369Z,1015.2
2017-03-29T04:58:33.124Z,1015.19
2017-03-29T04:59:13.750Z,1015.2
2017-03-29T04:59:54.371Z,1015.18
2017-03-29T05:00:35.027Z,1015.18
2017-03-29T05:01:15.658Z,1015.18
2017-03-29T05:01:56.295Z,1015.17
2017-03-29T05:02:36.921Z,1015.14
2017-03-29T05:03:17.588Z,1015.16
2017-03-29T05:03:58.228Z,1015.16
2017-03-29T05:04:38.890Z,1015.14
2017-03-29T05:05:19.510Z,1015.12
2017-03-29T05:06:00.159Z,1015.12
2017-03-29T05:06:40.805Z,1015.14
2017-03-29T05:07:21.431Z,1015.07
2017-03-29T05:08:02.067Z,1015.1
2017-03-29T05:08:42.714Z,1015.07
2017-03-29T05:09:23.397Z,1015.09
2017-03-29T05:10:04.044Z,1015.08
2017-03-29T05:10:44.688Z,1015.01
2017-03-29T05:11:25.343Z,1015.09
2017-03-29T05:12:05.960Z,1015.08
2017-03-29T05:12:46.594Z,1015.09
2017-03-29T05:13:27.299Z,1015.12
2017-03-29T05:14:07.936Z,1015.1
2017-03-29T05:14:48.582Z,1015.11
2017-03-29T05:15:29.334Z,1015.12
2017-03-29T05:16:10.032Z,1015.16
2017-03-29T05:16:50.670Z,1015.12
2017-03-29T05:17:31.289Z,1015.15
2017-03-29T05:18:11.980Z,1015.14
2017-03-29T05:18:52.608Z,1015.13
2017-03-29T05:19:33.232Z,1015.17
2017-03-29T05:20:13.879Z,1015.15
2017-03-29T05:20:54.662Z,1015.18
2017-03-29T05:21:35.315Z,1015.18
2017-03-29T05:22:16.078Z,1015.18
2017-03-29T05:22:56.785Z,1015.19
2017-03-29T05:23:37.538Z,1015.18
2017-03-29T05:24:18.182Z,1015.19
2017-03-29T05:24:58.925Z,1015.18
2017-03-29T05:25:39.550Z,1015.13
2017-03-29T05:26:20.174Z,1015.12
2017-03-29T05:27:00.884Z,1015.12
2017-03-29T05:27:41.568Z,1015.13
2017-03-29T05:28:22.193Z,1015.11
2017-03-29T05:29:02.841Z,1015.12
2017-03-29T05:29:43.485Z,1015.13
2017-03-29T05:30:24.115Z,1015.11
2017-03-29T05:31:04.819Z,1015.13
2017-03-29T05:31:45.532Z,1015.16
2017-03-29T05:32:26.159Z,1015.15
2017-03-29T05:33:06.809Z,1015.14
2017-03-29T05:33:47.527Z,1015.15
2017-03-29T05:34:28.266Z,1015.15
2017-03-29T05:35:08.886Z,1015.19
2017-03-29T05:35:49.634Z,1015.16
2017-03-29T05:36:30.293Z,1015.17
2017-03-29T05:37:10.994Z,1015.21
2017-03-29T05:37:51.638Z,1015.22
2017-03-29T05:38:32.267Z,1015.2
2017-03-29T05:39:12.956Z,1015.21
2017-03-29T05:39:53.580Z,1015.23
2017-03-29T05:40:34.305Z,1015.23
2017-03-29T05:41:14.969Z,1015.19
2017-03-29T05:41:55.594Z,1015.22
2017-03-29T05:42:36.221Z,1015.17
2017-03-29T05:43:16.872Z,1015.16
2017-03-29T05:43:57.495Z,1015.11
2017-03-29T05:44:38.200Z,1015.13
2017-03-29T05:45:18.842Z,1015.17
2017-03-29T05:45:59.462Z,1015.14
2017-03-29T05:46:40.197Z,1015.13
2017-03-29T05:47:20.823Z,1015.16
2017-03-29T05:48:01.450Z,1015.15
2017-03-29T05:48:42.144Z,1015.13
2017-03-29T05:49:22.844Z,1015.16
2017-03-29T05:50:03.472Z,1015.18
2017-03-29T05:50:44.114Z,1015.16
2017-03-29T05:51:24.766Z,1015.15
2017-03-29T05:52:05.406Z,1015.11
2017-03-29T05:52:46.031Z,1015.14
2017-03-29T05:53:26.700Z,1015.16
2017-03-29T05:54:07.322Z,1015.13
2017-03-29T05:54:47.950Z,1015.13
2017-03-29T05:55:28.598Z,1015.12
2017-03-29T05:56:09.249Z,1015.13
2017-03-29T05:56:49.872Z,1015.13
2017-03-29T05:57:30.524Z,1015.14
2017-03-29T05:58:11.197Z,1015.13
2017-03-29T05:58:51.826Z,1015.17
2017-03-29T05:59:32.451Z,1015.16
2017-03-29T06:00:13.092Z,1015.15
2017-03-29T06:00:53.726Z,1015.14
2017-03-29T06:01:34.353Z,1015.12
2017-03-29T06:02:14.980Z,1015.1
2017-03-29T06:02:55.612Z,1015.14
2017-03-29T06:03:36.960Z,1015.14
2017-03-29T06:04:17.590Z,1015.14
2017-03-29T06:04:58.218Z,1015.15
2017-03-29T06:05:38.870Z,1015.12
2017-03-29T06:06:19.502Z,1015.14
2017-03-29T06:07:00.129Z,1015.15
2017-03-29T06:07:40.841Z,1015.1
2017-03-29T06:08:21.464Z,1015.12
2017-03-29T06:09:02.215Z,1015.11
2017-03-29T06:09:42.850Z,1015.11
2017-03-29T06:10:23.476Z,1015.1
2017-03-29T06:11:04.104Z,1015.15
2017-03-29T06:11:44.827Z,1015.14
2017-03-29T06:12:25.572Z,1015.14
2017-03-29T06:13:06.128Z,1015.13
2017-03-29T06:13:46.789Z,1015.13
2017-03-29T06:14:27.494Z,1015.14
2017-03-29T06:15:08.035Z,1015.17
2017-03-29T06:15:48.675Z,1015.15
2017-03-29T06:16:29.308Z,1015.17
2017-03-29T06:17:09.941Z,1015.16
2017-03-29T06:17:50.563Z,1015.16
2017-03-29T06:18:31.251Z,1015.18
2017-03-29T06:19:11.843Z,1015.18
2017-03-29T06:19:52.502Z,1015.15
2017-03-29T06:20:33.113Z,1015.17
2017-03-29T06:21:13.744Z,1015.1
2017-03-29T06:21:54.377Z,1015.15
2017-03-29T06:22:35.005Z,1015.17
2017-03-29T06:23:15.736Z,1015.16
2017-03-29T06:23:56.457Z,1015.19
2017-03-29T06:24:37.116Z,1015.2
2017-03-29T06:25:17.746Z,1015.18
2017-03-29T06:25:58.441Z,1015.18
2017-03-29T06:26:39.068Z,1015.2
2017-03-29T06:27:19.739Z,1015.21
2017-03-29T06:28:00.430Z,1015.21
2017-03-29T06:28:41.127Z,1015.18
2017-03-29T06:29:21.763Z,1015.23
2017-03-29T06:30:02.436Z,1015.22
2017-03-29T06:30:43.119Z,1015.18
2017-03-29T06:31:23.756Z,1015.18
2017-03-29T06:32:04.381Z,1015.17
2017-03-29T06:32:45.048Z,1015.21
2017-03-29T06:33:25.743Z,1015.19
2017-03-29T06:34:06.397Z,1015.23
2017-03-29T06:34:47.027Z,1015.24
2017-03-29T06:35:27.746Z,1015.25
2017-03-29T06:36:08.369Z,1015.23
2017-03-29T06:36:49.008Z,1015.28
2017-03-29T06:37:29.646Z,1015.25
2017-03-29T06:38:10.302Z,1015.21
2017-03-29T06:38:50.949Z,1015.25
2017-03-29T06:39:31.549Z,1015.25
2017-03-29T06:40:12.169Z,1015.26
2017-03-29T06:40:52.796Z,1015.28
2017-03-29T06:41:33.421Z,1015.3
2017-03-29T06:42:14.043Z,1015.3
2017-03-29T06:42:54.699Z,1015.29
2017-03-29T06:43:35.392Z,1015.29
2017-03-29T06:44:16.020Z,1015.3
2017-03-29T06:44:56.644Z,1015.3
2017-03-29T06:45:37.268Z,1015.32
2017-03-29T06:46:17.889Z,1015.33
2017-03-29T06:46:58.509Z,1015.34
2017-03-29T06:47:39.136Z,1015.39
2017-03-29T06:48:19.757Z,1015.36
2017-03-29T06:49:00.516Z,1015.37
2017-03-29T06:49:41.151Z,1015.37
2017-03-29T06:50:21.779Z,1015.37
2017-03-29T06:51:02.458Z,1015.38
2017-03-29T06:51:43.101Z,1015.39
2017-03-29T06:52:23.726Z,1015.35
2017-03-29T06:53:04.360Z,1015.4
2017-03-29T06:53:45.027Z,1015.41
2017-03-29T06:54:25.670Z,1015.38
2017-03-29T06:55:06.445Z,1015.39
2017-03-29T06:55:47.076Z,1015.38
2017-03-29T06:56:27.748Z,1015.39
2017-03-29T06:57:08.372Z,1015.42
2017-03-29T06:57:48.989Z,1015.39
2017-03-29T06:58:29.613Z,1015.4
2017-03-29T06:59:10.290Z,1015.37
2017-03-29T06:59:51.008Z,1015.39
2017-03-29T07:00:31.686Z,1015.36
2017-03-29T07:01:12.333Z,1015.37
2017-03-29T07:01:52.998Z,1015.35
2017-03-29T07:02:33.613Z,1015.31
2017-03-29T07:03:14.236Z,1015.33
2017-03-29T07:03:54.893Z,1015.36
2017-03-29T07:04:35.525Z,1015.33
2017-03-29T07:05:16.206Z,1015.31
2017-03-29T07:05:56.818Z,1015.32
2017-03-29T07:06:37.471Z,1015.34
2017-03-29T07:07:18.121Z,1015.27
2017-03-29T07:07:58.760Z,1015.33
2017-03-29T07:08:39.401Z,1015.28
2017-03-29T07:09:20.035Z,1015.29
2017-03-29T07:10:00.734Z,1015.31
2017-03-29T07:10:41.433Z,1015.26
2017-03-29T07:11:22.062Z,1015.28
2017-03-29T07:12:02.769Z,1015.26
2017-03-29T07:12:43.396Z,1015.28
2017-03-29T07:13:24.017Z,1015.25
2017-03-29T07:14:04.744Z,1015.25
2017-03-29T07:14:45.363Z,1015.27
2017-03-29T07:15:25.998Z,1015.26
2017-03-29T07:16:06.659Z,1015.27
2017-03-29T07:16:47.291Z,1015.31
2017-03-29T07:17:27.965Z,1015.29
2017-03-29T07:18:08.629Z,1015.29
2017-03-29T07:18:49.254Z,1015.26
2017-03-29T07:19:29.903Z,1015.29
2017-03-29T07:20:10.544Z,1015.31
2017-03-29T07:20:51.170Z,1015.34
2017-03-29T07:21:31.793Z,1015.32
2017-03-29T07:22:12.424Z,1015.31
2017-03-29T07:22:53.053Z,1015.34
2017-03-29T07:23:33.714Z,1015.34
2017-03-29T07:24:14.356Z,1015.34
2017-03-29T07:24:54.996Z,1015.33
2017-03-29T07:25:35.619Z,1015.34
2017-03-29T07:26:16.251Z,1015.33
2017-03-29T07:26:56.904Z,1015.32
2017-03-29T07:27:37.546Z,1015.35
2017-03-29T07:28:18.178Z,1015.33
2017-03-29T07:28:58.868Z,1015.33
2017-03-29T07:29:39.493Z,1015.32
2017-03-29T07:30:20.121Z,1015.34
2017-03-29T07:31:00.830Z,1015.35
2017-03-29T07:31:41.538Z,1015.35
2017-03-29T07:32:22.190Z,1015.37
2017-03-29T07:33:02.838Z,1015.36
2017-03-29T07:33:43.543Z,1015.35
2017-03-29T07:34:24.171Z,1015.34
2017-03-29T07:35:04.806Z,1015.34
2017-03-29T07:35:45.468Z,1015.33
2017-03-29T07:36:26.096Z,1015.33
2017-03-29T07:37:06.732Z,1015.35
2017-03-29T07:37:47.376Z,1015.33
2017-03-29T07:38:28.014Z,1015.34
2017-03-29T07:39:08.648Z,1015.29
2017-03-29T07:39:49.271Z,1015.35
2017-03-29T07:40:29.901Z,1015.32
2017-03-29T07:41:10.611Z,1015.32
2017-03-29T07:41:51.237Z,1015.31
2017-03-29T07:42:31.941Z,1015.35
2017-03-29T07:43:13.230Z,1015.37
2017-03-29T07:43:53.874Z,1015.33
2017-03-29T07:44:34.479Z,1015.34
2017-03-29T07:45:15.114Z,1015.31
2017-03-29T07:45:55.750Z,1015.3
2017-03-29T07:46:36.393Z,1015.35
2017-03-29T07:47:17.067Z,1015.32
2017-03-29T07:47:57.739Z,1015.32
2017-03-29T07:48:38.380Z,1015.32
2017-03-29T07:49:19.095Z,1015.35
2017-03-29T07:49:59.719Z,1015.34
2017-03-29T07:50:40.382Z,1015.35
2017-03-29T07:51:21.074Z,1015.35
2017-03-29T07:52:01.702Z,1015.34
2017-03-29T07:52:42.324Z,1015.36
2017-03-29T07:53:23.059Z,1015.34
2017-03-29T07:54:03.736Z,1015.38
2017-03-29T07:54:44.364Z,1015.35
2017-03-29T07:55:25.081Z,1015.32
2017-03-29T07:56:05.819Z,1015.33
2017-03-29T07:56:46.529Z,1015.33
2017-03-29T07:57:27.157Z,1015.37
2017-03-29T07:58:07.805Z,1015.36
2017-03-29T07:58:48.427Z,1015.33
2017-03-29T07:59:29.052Z,1015.34
2017-03-29T08:00:09.708Z,1015.32
2017-03-29T08:00:50.332Z,1015.34
2017-03-29T08:01:30.955Z,1015.36
2017-03-29T08:02:11.611Z,1015.39
2017-03-29T08:02:52.238Z,1015.41
2017-03-29T08:03:32.861Z,1015.39
2017-03-29T08:04:13.583Z,1015.4
2017-03-29T08:04:54.218Z,1015.44
2017-03-29T08:05:34.860Z,1015.4
2017-03-29T08:06:15.489Z,1015.45
2017-03-29T08:06:56.127Z,1015.47
2017-03-29T08:07:36.750Z,1015.44
2017-03-29T08:08:17.414Z,1015.46
2017-03-29T08:08:58.188Z,1015.45
2017-03-29T08:09:38.820Z,1015.45
2017-03-29T08:10:19.440Z,1015.46
2017-03-29T08:11:00.074Z,1015.44
2017-03-29T08:11:40.703Z,1015.45
2017-03-29T08:12:21.415Z,1015.46
2017-03-29T08:13:02.131Z,1015.47